TTPP/POS METAR and TAF weather

Enter ICAO airport designator
Station Type Date Time Source
TTPP METAR 2021/05/14 12:00 UTC NOAA

TTPP 141200Z 12003KT 9999 VCSH FEW016 SCT038 26/23 Q1014 NOSIG


Station Type Date Time Source
TTPP Decoded METAR 2021/05/14 12:00 UTC NOAA

Piarco International Airport, Trinidad, Trinidad and Tobago (TTPP) 10-37N 061-21W 15M
May 14, 2021 - 08:00 AM EDT / 2021.05.14 1200 UTC
Wind: from the ESE (120 degrees) at 3 MPH (3 KT):0
Visibility: greater than 7 mile(s):0
Sky conditions: partly cloudy
Weather: showers in the vicinity
Temperature: 78 F (26 C)
Dew Point: 73 F (23 C)
Relative Humidity: 83%
Pressure (altimeter): 29.94 in. Hg (1014 hPa)
ob: TTPP 141200Z 12003KT 9999 VCSH FEW016 SCT038 26/23 Q1014 NOSIG
cycle: 12

Station Type Date Time Source
TTPP TAF 2021/05/14 12:23 UTC NOAA

TAF TTPP 141000Z 1412/1512 10015KT 9000 SCT022
BECMG 1423/1501 09005KT 9999 FEW016 PROB30
TEMPO 1509/1512 6000 SHRA SCT015 BKN038

Example: see airport list